• Join FlightAware (Why Join?)
  • Login
  • US Flag 
11:10PM EDT


 

Airport Tracker/Info


-or-


 

Live Flight TrackerFlight Track Log ✈ EJM214 ✈ 20-Jun-2013 ✈ KBOS - KLSE

Flight Track Log - Related Links

Times and Time Zones

All times are in EDT time to prevent confusion due to time zone crossing. See the EJM214 flight status page for this flight to view local times or setup timezone preferences in your user account.

Time Position Orientation Groundspeed Altitude Reporting Facility
EDT Latitude Longitude Course Direction KTS MPH feet Rate Location/Type
11:47AM 42.3833 -71.0000 20° North 193 222 900  Level KA90
11:48AM 42.4167 -70.9833 20° North 207 238 3,300 2,520 Climbing KA90
11:49AM 42.4500 -70.9167 56° Northeast 281 323 5,000 1,320 Climbing KA90
11:50AM 42.5408 -70.8114 40° Northeast 296 341 7,100 1,740 Climbing Boston Center
11:51AM 42.6144 -70.8544 337° Northwest 254 292 10,000 2,820 Climbing Boston Center
11:52AM 42.6597 -70.9608 300° West 275 316 12,800 3,360 Climbing Boston Center
11:53AM 42.7050 -71.0783 298° West 340 391 16,800 2,940 Climbing Boston Center
11:54AM 42.7350 -71.1597 297° West 349 402 18,700 2,700 Climbing Boston Center
11:55AM 42.7783 -71.3172 291° West 360 414 22,300 3,000 Climbing Boston Center
11:56AM 42.7922 -71.4611 278° West 374 430 24,700 2,580 Climbing Boston Center
11:57AM 42.8017 -71.6194 275° West 381 438 27,500 2,400 Climbing Boston Center
11:58AM 42.8172 -71.7692 278° West 389 448 29,600 2,040 Climbing Boston Center
11:59AM 42.8306 -71.9164 277° West 396 456 31,600 1,980 Climbing Boston Center
12:00PM 42.8436 -72.0606 277° West 396 456 33,600 1,980 Climbing Boston Center
12:01PM 42.8544 -72.2078 276° West 396 456 35,600 1,620 Climbing Boston Center
12:02PM 42.8733 -72.3381 281° West 396 456 36,900 1,140 Climbing Boston Center
12:03PM 42.8839 -72.4853 276° West 396 456 37,900 1,140 Climbing Boston Center
12:04PM 42.8900 -72.6497 273° West 396 456 39,200 1,260 Climbing Boston Center
12:05PM 42.9022 -72.7944 277° West 396 456 40,500 900 Climbing Boston Center
12:06PM 42.9142 -72.9475 276° West 396 456 41,000 360 Climbing Boston Center
12:07PM 42.9281 -73.0808 278° West 401 461 41,300 480 Climbing Boston Center
12:08PM 42.9394 -73.2314 276° West 401 461 42,000 540 Climbing Boston Center
12:09PM 42.9467 -73.3761 274° West 401 461 42,400 360 Climbing Boston Center
12:11PM 42.9558 -73.5322 275° West 407 468 42,900 240 Climbing Boston Center
12:12PM 42.9683 -73.7197 275° West 413 475 43,000  Climbing Boston Center
12:13PM 42.9794 -73.8506 277° West 420 483 43,000  Level Boston Center
12:14PM 42.9933 -74.0467 276° West 431 496 43,000  Level Boston Center
12:15PM 43.0056 -74.2089 276° West 431 496 43,000  Level Boston Center
12:16PM 43.0156 -74.3683 275° West 431 496 43,000  Level Boston Center
12:17PM 43.0253 -74.5306 275° West 426 490 43,000  Level Boston Center
12:18PM 43.0347 -74.6869 275° West 426 490 43,000  Level Boston Center
12:19PM 43.0442 -74.8436 275° West 421 484 43,000  Level Boston Center
12:20PM 43.0553 -75.0003 276° West 421 484 43,000  Level Boston Center
12:21PM 43.0642 -75.1569 274° West 421 484 43,000  Level Boston Center
12:22PM 43.0728 -75.3167 274° West 421 484 43,000  Level Boston Center
12:23PM 43.0811 -75.4706 274° West 421 484 43,000  Level Boston Center
12:24PM 43.0911 -75.6417 275° West 421 484 43,000  Level Boston Center
12:25PM 43.1014 -75.7958 275° West 421 484 43,000  Level Boston Center
12:26PM 43.1089 -75.9556 274° West 421 484 43,000  Level Boston Center
12:27PM 43.1167 -76.1667 273° West 410 472 43,000  Level Toronto Center
12:28PM 43.1256 -76.3158 275° West 402 463 43,000  Level Cleveland Center
12:29PM 43.1333 -76.4692 274° West 402 463 43,000  Level Cleveland Center
12:30PM 43.1425 -76.6194 275° West 402 463 43,000  Level Cleveland Center
12:31PM 43.1475 -76.7669 273° West 397 457 43,000  Level Cleveland Center
12:32PM 43.1547 -76.9203 274° West 397 457 43,000  Level Cleveland Center
12:33PM 43.1614 -77.0708 274° West 402 463 43,000  Level Cleveland Center
12:34PM 43.1681 -77.2214 274° West 402 463 43,000  Level Cleveland Center
12:35PM 43.1744 -77.3719 273° West 402 463 43,000  Level Cleveland Center
12:36PM 43.1783 -77.5228 272° West 402 463 43,000  Level Cleveland Center
12:37PM 43.1844 -77.6733 273° West 402 463 43,000  Level Cleveland Center
12:38PM 43.1900 -77.8239 273° West 402 463 43,000  Level Cleveland Center
12:39PM 43.1958 -77.9775 273° West 407 468 43,000  Level Cleveland Center
12:40PM 43.2011 -78.1311 273° West 402 463 43,000  Level Cleveland Center
12:41PM 43.2064 -78.2847 273° West 402 463 43,000  Level Cleveland Center
12:42PM 43.2097 -78.4556 272° West 409 471 43,000  Level Cleveland Center
12:43PM 43.2167 -78.6119 274° West 416 479 43,000  Level Cleveland Center
12:44PM 43.2211 -78.7656 272° West 416 479 43,000  Level Cleveland Center
12:45PM 43.2236 -78.9194 271° West 416 479 43,000  Level Cleveland Center
12:46PM 43.2278 -79.0789 272° West 416 479 43,000  Level Cleveland Center
12:47PM 43.2167 -79.2167 264° West 410 472 43,000  Level Toronto Center
12:48PM 43.2167 -79.4000 270° West 410 472 43,000  Level Toronto Center
12:49PM 43.2333 -79.5333 280° West 410 472 43,000  Level Toronto Center
12:50PM 43.2500 -79.7000 278° West 410 472 43,000  Level Toronto Center
12:51PM 43.2667 -79.8667 278° West 420 483 43,000  Level Toronto Center
12:52PM 43.2833 -80.0167 279° West 410 472 43,000  Level Toronto Center
12:53PM 43.3000 -80.1833 278° West 420 483 43,000  Level Toronto Center
12:54PM 43.3167 -80.3167 280° West 420 483 43,000  Level Toronto Center
12:55PM 43.3333 -80.4833 278° West 420 483 43,000  Level Toronto Center
12:56PM 43.3500 -80.6500 278° West 420 483 43,000  Level Toronto Center
12:57PM 43.3667 -80.8000 279° West 420 483 43,000  Level Toronto Center
12:58PM 43.3667 -80.9667 270° West 420 483 43,000  Level Toronto Center
12:59PM 43.3833 -81.1167 279° West 420 483 43,000  Level Toronto Center
01:00PM 43.4000 -81.2833 278° West 430 495 43,000  Level Toronto Center
01:01PM 43.4167 -81.4500 278° West 430 495 43,000  Level Toronto Center
01:02PM 43.4333 -81.6000 279° West 430 495 43,000  Level Toronto Center
01:03PM 43.4500 -81.7667 278° West 430 495 43,000  Level Toronto Center
01:04PM 43.4500 -81.9333 270° West 430 495 43,000  Level Toronto Center
01:05PM 43.4667 -82.0833 279° West 430 495 43,000  Level Toronto Center
01:06PM 43.4950 -82.2028 288° West 426 490 43,000  Level Cleveland Center
01:07PM 43.5094 -82.3606 277° West 426 490 43,000  Level Cleveland Center
01:08PM 43.5214 -82.5242 276° West 426 490 43,000  Level Cleveland Center
01:09PM 43.5331 -82.6819 276° West 426 490 43,000  Level Cleveland Center
01:11PM 43.5500 -83.0667 274° West 420 483 43,000  Level Toronto Center
01:12PM 43.5500 -83.2167 270° West 420 483 43,000  Level Toronto Center
01:13PM 43.5667 -83.3833 278° West 420 483 43,000  Level Toronto Center
01:14PM 43.5833 -83.5500 278° West 420 483 43,000  Level Toronto Center
01:15PM 43.6097 -83.7361 281° West 422 486 43,000  Level Minneapolis Center
01:16PM 43.6208 -83.8961 276° West 423 487 43,000  Level Minneapolis Center
01:17PM 43.6294 -84.0236 275° West 421 484 43,000  Level Minneapolis Center
01:19PM 43.6411 -84.2167 275° West 421 484 43,000  Level Minneapolis Center
01:20PM 43.6528 -84.3769 276° West 422 486 43,000  Level Minneapolis Center
01:21PM 43.6642 -84.5694 275° West 421 484 43,000  Level Minneapolis Center
01:22PM 43.6744 -84.7311 275° West 423 487 43,000  Level Minneapolis Center
01:23PM 43.6839 -84.8914 275° West 423 487 43,000  Level Minneapolis Center
01:24PM 43.6936 -85.0531 275° West 424 488 43,000  Level Minneapolis Center
01:25PM 43.7025 -85.2128 274° West 422 486 43,000  Level Minneapolis Center
01:26PM 43.7131 -85.4067 274° West 424 488 43,000  Level Minneapolis Center
01:27PM 43.7222 -85.5681 275° West 424 488 43,000  Level Minneapolis Center
01:28PM 43.7294 -85.7289 274° West 424 488 43,000  Level Minneapolis Center
01:29PM 43.7383 -85.8908 274° West 425 489 43,000  Level Minneapolis Center
01:30PM 43.7456 -86.0519 274° West 424 488 43,000  Level Minneapolis Center
01:31PM 43.7519 -86.1814 274° West 424 488 43,000  Level Minneapolis Center
01:32PM 43.7639 -86.4064 274° West 424 488 43,000  Level Minneapolis Center
01:33PM 43.7708 -86.5686 273° West 424 488 43,000  Level Minneapolis Center
01:34PM 43.7800 -86.7297 275° West 425 489 43,000  Level Chicago Center
01:35PM 43.7861 -86.9242 273° West 424 488 43,000  Level Minneapolis Center
01:36PM 43.7931 -87.1175 273° West 422 486 43,000  Level Minneapolis Center
01:37PM 43.7986 -87.2494 273° West 428 493 43,000  Level Chicago Center
01:38PM 43.8044 -87.4061 273° West 424 488 43,000  Level Chicago Center
01:39PM 43.8125 -87.5978 273° West 425 489 43,000  Level Chicago Center
01:40PM 43.8178 -87.7633 273° West 429 494 43,000 -300 Level Chicago Center
01:41PM 43.8217 -87.9269 272° West 427 491 42,500 -1,260 Descending Chicago Center
01:42PM 43.8275 -88.0878 273° West 421 484 40,500 -1,920 Descending Chicago Center
01:43PM 43.8325 -88.2508 272° West 425 489 38,600 -2,100 Descending Chicago Center
01:44PM 43.8372 -88.4442 272° West 432 497 36,200 -2,100 Descending Chicago Center
01:45PM 43.8414 -88.6078 272° West 430 495 34,300 -1,980 Descending Chicago Center
01:46PM 43.8158 -88.7800 258° West 464 534 32,200 -1,620 Descending Chicago Center
01:48PM 43.7667 -88.9450 248° West 471 542 31,000 -660 Descending Chicago Center
01:49PM 43.6742 -89.1169 233° Southwest 481 554 30,900 -840 Descending Chicago Center
01:50PM 43.5969 -89.2653 234° Southwest 480 552 29,300 -1,740 Descending Chicago Center
01:51PM 43.5256 -89.4156 237° Southwest 472 543 27,300 -2,040 Descending Chicago Center
01:52PM 43.4961 -89.5764 256° West 439 505 25,200 -2,160 Descending Chicago Center
01:53PM 43.4719 -89.7567 260° West 412 474 22,900 -2,100 Descending Chicago Center
01:54PM 43.4586 -89.9086 263° West 402 463 20,900 -1,980 Descending Chicago Center
01:55PM 43.4697 -90.0575 276° West 400 460 18,900 -1,860 Descending Chicago Center
01:56PM 43.5156 -90.1906 295° West 384 442 17,100 -2,040 Descending Chicago Center
01:57PM 43.5647 -90.3308 296° West 376 433 14,800 -2,100 Descending Chicago Center
01:58PM 43.6064 -90.4508 296° West 359 413 12,800 -1,980 Descending Chicago Center
01:59PM 43.6417 -90.5578 295° West 324 373 10,800 -1,920 Descending Chicago Center
02:00PM 43.6764 -90.6572 296° West 300 345 8,900 -1,920 Descending Chicago Center
02:01PM 43.7178 -90.7808 295° West 273 314 6,600 -1,320 Descending Minneapolis Center
02:02PM 43.7519 -90.8836 295° West 282 325 6,000 -360 Descending Minneapolis Center
02:03PM 43.7861 -90.9858 295° West 280 322 5,900 -840 Descending Minneapolis Center
02:04PM 43.8178 -91.0814 295° West 265 305 4,300 -1,440 Descending Minneapolis Center
02:05PM 43.8653 -91.1625 309° West 264 304 3,000 -1,020 Descending Minneapolis Center
02:06PM 43.9167 -91.2139 324° Northwest 219 252 2,200 -780 Descending Minneapolis Center
02:08PM 43.8793 -91.2566 296° West  Level Estimated